Current Weather

Kayes/Dag-Dag

Kayes/Dag-Dag, Mali (GAKD)

Report from: Thursday, April 25, 2024 3:00 AM UTC
Current time: Thursday, April 25, 2024 4:11 AM UTC

Nearby weather – Weather history – Daily summaries
Weather forecast

Temperature32.0°C (89.6°F)
Heat index31.3°C (88.3°F)
Dew point14.0°C (57.2°F)
Winds 6 kts (3.1 m/s, 6.9 mph) Northwest (320°)
Visibility5 mi. (8 km)
Altimeter29.74 in.Hg (1007 mB)
Relative humidity34 %
Density altitude2,373 ft. (723 m)
Flight conditions Marginal Visual Meteorological Conditions
Raw dataGAKD 250300Z 32006KT 8000 NSC 32/14 Q1007
An error has occurred. This application may no longer respond until reloaded. Reload 🗙